Terminal Aerodrome Forecast
Issued by NWS Grand Forks, ND

Home | Current Version | Previous Version | Graphics & Text | Print | Product List | Glossary On
Versions: 1 2 3 4 5 6 7 8 9 10 11 12 13 14 15 16
160
FTUS43 KFGF 252324
TAFGFK
TAF
KGFK 252324Z 2600/2624 17015KT P6SM SCT070
      TEMPO 2600/2601 BKN060
     FM260800 20007KT P6SM SCT150
     FM261100 25006KT P6SM FEW200
     FM261500 28009KT P6SM FEW200=

USA.gov is the U.S. government's official web portal to all federal, state and local government web resources and services.